West Newton, PA

2:12 AM EDT on August 25, 2016 (GMT -0400)
Rostraver Township | | Change Station

Elev 994 ft 40.15 °N, 79.79 °W | Updated 19 seconds ago

Partly Cloudy
Partly Cloudy
70.0 °F
Feels Like 70.0 °F
N
0.0
Wind Variable Wind from SW
Gusts 0.0 mph

Today
High -- | Low -- °F
--% Chance of Precip.
Yesterday
High -- | Low -- °F
Precip. -- in
Pressure 30.06 in
Visibility 10.0 miles
Clouds Few 4900 ft
Dew Point 68 °F
Humidity 92%
Rainfall 0.00 in
Snow Depth Not available.
6:40 AM 8:00 PM
Waning Gibbous, 49% visible
METAR KAGC 250553Z 18008KT 10SM FEW049 23/18 A3008 RMK AO2 SLP180 T02280178 10267 20222 56016
Pressure 30.06 in
Visibility 10.0 miles
Clouds Few 4900 ft
Dew Point 68 °F
Humidity 92%
Rainfall 0.00 in
Snow Depth Not available.
6:40 AM 8:00 PM
Waning Gibbous, 49% visible
METAR KAGC 250553Z 18008KT 10SM FEW049 23/18 A3008 RMK AO2 SLP180 T02280178 10267 20222 56016

10-Day Weather Forecast

Almanac

Astronomy

Aug. 25, 2016 Rise Set
Actual Time
Civil Twilight
Nautical Twilight
Astronomical Twilight
Moon
Length of Visible Light
Length of Day
Tomorrow will be .
, % of the Moon is Illuminated

Today's Extremes

State Highs State Lows

Community

WunderPhotos

Upload Photos

1,934,803 photos uploaded!

WunderBlog® & News

Nearby

Air Quality

  Air Quality AQ Index Pollutant
Not available.

Snow Depth

Station Depth Elevation

Earthquake Activity

City Distance Mag. Time & Date
Minimum magnitude displayed is 2.5.

Coastal Water Temperatures

Place Temperature

Stations

Nearby Weather Stations

Station Location Temp. Windchill Dew Point Humidity Wind Precip. Elev Updated Type
                   

Watches & Warnings

There are currently no watches in effect.